Time;durP1;ratioP1;P1;durP2;ratioP2;P2;SDS_P1;SDS_P2;PMS_P1;PMS_P2;Temp;Humidity;BMP_temperature;BMP_pressure;BME280_temperature;BME280_humidity;BME280_pressure;Samples;Min_cycle;Max_cycle;Signal;HPM_P1;HPM_P2
2022/01/08 00:00:25;;;;;;;41.20;23.80;;;;;;;5.83;100.00;99750.59;5069768;28;20335;-62
2022/01/08 00:02:52;;;;;;;39.13;21.97;;;;;;;5.80;100.00;99738.56;5069918;28;20599;-61
2022/01/08 00:05:20;;;;;;;31.70;19.00;;;;;;;5.92;100.00;99736.81;5070310;28;20660;-62
2022/01/08 00:07:47;;;;;;;25.87;17.80;;;;;;;5.95;100.00;99736.81;5069818;28;20200;-60
2022/01/08 00:10:14;;;;;;;23.30;16.13;;;;;;;5.99;100.00;99741.06;5069751;28;20286;-59
2022/01/08 00:12:43;;;;;;;25.50;16.97;;;;;;;5.94;100.00;99729.94;5069805;28;20316;-60
2022/01/08 00:15:10;;;;;;;24.07;15.77;;;;;;;5.83;100.00;99725.69;5069743;28;20756;-60
2022/01/08 00:17:37;;;;;;;23.10;15.30;;;;;;;5.90;100.00;99705.06;5069698;28;20656;-60
2022/01/08 00:20:06;;;;;;;23.17;15.67;;;;;;;6.05;100.00;99747.03;5069623;28;20219;-61
2022/01/08 00:22:33;;;;;;;20.73;14.77;;;;;;;6.04;100.00;99744.47;5069515;28;20206;-59
2022/01/08 00:25:00;;;;;;;21.47;15.07;;;;;;;6.02;100.00;99735.88;5069670;28;20200;-61
2022/01/08 00:27:27;;;;;;;17.93;13.50;;;;;;;5.94;100.00;99717.91;5069454;28;20200;-59
2022/01/08 00:29:56;;;;;;;19.77;13.73;;;;;;;5.97;100.00;99738.50;5069581;28;20202;-59
2022/01/08 00:32:22;;;;;;;18.37;14.20;;;;;;;5.93;100.00;99729.09;5069809;28;20686;-62
2022/01/08 00:34:49;;;;;;;23.10;15.07;;;;;;;5.89;100.00;99729.09;5069656;28;20192;-62
2022/01/08 00:37:17;;;;;;;21.57;12.83;;;;;;;5.92;100.00;99704.19;5069362;28;20250;-58
2022/01/08 00:39:44;;;;;;;19.90;13.90;;;;;;;5.88;100.00;99719.63;5069290;28;20222;-59
2022/01/08 00:42:11;;;;;;;25.17;14.77;;;;;;;5.89;100.00;99713.66;5069375;28;20637;-59
2022/01/08 00:44:38;;;;;;;21.77;14.70;;;;;;;5.93;100.00;99710.19;5069205;28;20203;-59
2022/01/08 00:47:06;;;;;;;15.70;12.27;;;;;;;6.03;100.00;99715.28;5069733;28;20226;-59
2022/01/08 00:49:33;;;;;;;14.03;11.07;;;;;;;5.83;100.00;99720.53;5069745;28;20208;-60
2022/01/08 00:52:01;;;;;;;14.17;11.27;;;;;;;5.75;100.00;99706.00;5072964;28;20206;-59
2022/01/08 00:54:28;;;;;;;13.97;10.53;;;;;;;5.84;100.00;99705.94;5073050;28;20653;-62
2022/01/08 00:56:54;;;;;;;13.53;9.77;;;;;;;5.84;100.00;99703.38;5073169;28;20198;-62
2022/01/08 00:59:21;;;;;;;13.03;10.20;;;;;;;5.88;100.00;99706.75;5073068;28;20226;-60
2022/01/08 01:01:48;;;;;;;14.03;10.80;;;;;;;5.88;100.00;99706.75;5072892;28;20198;-63
2022/01/08 01:04:17;;;;;;;13.97;10.80;;;;;;;5.89;100.00;99700.75;5072936;28;20538;-61
2022/01/08 01:06:44;;;;;;;13.17;10.77;;;;;;;6.01;100.00;99703.25;5072945;28;20196;-62
2022/01/08 01:09:10;;;;;;;15.10;11.10;;;;;;;6.03;100.00;99701.53;5072944;28;20235;-62
2022/01/08 01:11:37;;;;;;;17.63;12.07;;;;;;;6.00;100.00;99693.81;5072842;28;20203;-59
2022/01/08 01:14:04;;;;;;;17.70;12.00;;;;;;;6.05;100.00;99690.34;5072904;28;20200;-58
2022/01/08 01:16:31;;;;;;;18.77;11.50;;;;;;;6.06;100.00;99696.38;5072755;28;20203;-62
2022/01/08 01:19:00;;;;;;;15.37;11.83;;;;;;;6.00;100.00;99696.41;5072891;28;20202;-63
2022/01/08 01:21:29;;;;;;;19.27;12.53;;;;;;;5.99;100.00;99689.53;5072817;28;20791;-63
2022/01/08 01:23:57;;;;;;;18.77;12.87;;;;;;;6.00;100.00;99683.50;5073042;28;20643;-60
2022/01/08 01:26:26;;;;;;;16.80;13.00;;;;;;;5.97;100.00;99678.41;5072799;28;20196;-61
2022/01/08 01:28:58;;;;;;;17.93;12.70;;;;;;;5.74;100.00;99678.53;5072944;28;20266;-63
2022/01/08 01:42:52;;;;;;;18.57;13.27;;;;;;;6.03;100.00;99644.84;5072352;28;20207;-61
2022/01/08 01:48:03;;;;;;;22.30;13.10;;;;;;;5.80;100.00;99602.06;5072359;28;20277;-59
2022/01/08 01:50:30;;;;;;;18.53;13.17;;;;;;;5.99;100.00;99630.28;5072137;28;20234;-60
2022/01/08 01:52:58;;;;;;;18.63;14.30;;;;;;;6.13;100.00;99633.59;5072334;28;20191;-58
2022/01/08 01:55:25;;;;;;;19.73;13.63;;;;;;;6.00;100.00;99629.41;5072139;28;20196;-59
2022/01/08 01:57:54;;;;;;;18.90;14.10;;;;;;;5.96;100.00;99633.75;5072170;28;20196;-59
2022/01/08 02:00:21;;;;;;;21.87;14.00;;;;;;;5.96;100.00;99635.47;5071997;28;20227;-59
2022/01/08 02:02:48;;;;;;;22.00;13.80;;;;;;;5.86;100.00;99642.38;5071083;28;20354;-59
2022/01/08 02:05:15;;;;;;;22.47;14.17;;;;;;;5.94;100.00;99647.50;5071958;28;20207;-59
2022/01/08 02:07:42;;;;;;;21.07;14.47;;;;;;;5.79;100.00;99618.38;5071792;28;20196;-60
2022/01/08 02:10:11;;;;;;;22.30;15.00;;;;;;;6.08;100.00;99631.06;5071765;28;20692;-59
2022/01/08 02:12:38;;;;;;;20.63;14.13;;;;;;;6.03;100.00;99626.81;5071530;28;20235;-60
2022/01/08 02:15:06;;;;;;;21.53;14.60;;;;;;;6.13;100.00;99621.56;5071724;28;20286;-61
2022/01/08 02:17:33;;;;;;;19.97;13.60;;;;;;;6.17;100.00;99619.81;5071710;28;20206;-62
2022/01/08 02:20:01;;;;;;;20.43;14.10;;;;;;;6.15;100.00;99614.69;5071946;28;20222;-61
2022/01/08 02:22:28;;;;;;;22.63;14.33;;;;;;;6.08;100.00;99618.19;5071575;28;20191;-62
2022/01/08 02:24:55;;;;;;;22.63;15.13;;;;;;;6.00;100.00;99608.78;5071565;28;20198;-59
2022/01/08 02:27:22;;;;;;;24.40;16.00;;;;;;;6.00;100.00;99608.78;5071489;28;20207;-63
2022/01/08 02:29:50;;;;;;;24.87;16.63;;;;;;;6.02;100.00;99589.03;5071361;28;20254;-62
2022/01/08 02:32:20;;;;;;;21.43;15.77;;;;;;;6.11;100.00;99599.25;5071388;28;20195;-62
2022/01/08 02:34:49;;;;;;;23.47;16.93;;;;;;;6.15;100.00;99598.34;5071184;28;20199;-63
2022/01/08 02:37:19;;;;;;;23.97;16.33;;;;;;;6.17;100.00;99599.19;5071208;28;20756;-61
2022/01/08 02:39:49;;;;;;;24.03;17.57;;;;;;;5.98;100.00;99580.47;5071115;28;20243;-62
2022/01/08 02:42:19;;;;;;;27.67;18.13;;;;;;;6.12;100.00;99596.66;5071269;28;20700;-61
2022/01/08 02:44:47;;;;;;;29.60;18.43;;;;;;;6.14;100.00;99596.66;5071037;28;20295;-62
2022/01/08 02:47:15;;;;;;;28.50;18.63;;;;;;;6.08;100.00;99576.97;5070960;28;20210;-61
2022/01/08 02:49:42;;;;;;;24.43;17.60;;;;;;;6.02;100.00;99587.31;5070873;28;20199;-62
2022/01/08 02:52:11;;;;;;;28.13;18.47;;;;;;;5.98;100.00;99559.84;5071097;28;20206;-62
2022/01/08 02:54:39;;;;;;;28.47;17.33;;;;;;;6.21;100.00;99582.00;5070782;28;20192;-58
2022/01/08 02:57:06;;;;;;;28.10;18.23;;;;;;;6.16;100.00;99589.75;5071101;28;20214;-58
2022/01/08 02:59:34;;;;;;;26.87;17.17;;;;;;;6.06;100.00;99577.84;5070960;28;20192;-59
2022/01/08 03:02:02;;;;;;;24.13;16.43;;;;;;;6.21;100.00;99575.09;5070793;28;20192;-59
2022/01/08 03:04:29;;;;;;;25.07;17.77;;;;;;;6.11;100.00;99574.34;5070699;28;20210;-63
2022/01/08 03:06:56;;;;;;;22.97;15.77;;;;;;;5.97;100.00;99571.06;5070999;28;20210;-59
2022/01/08 03:09:23;;;;;;;24.03;15.97;;;;;;;5.88;100.00;99577.97;5070770;28;20691;-59
2022/01/08 03:11:51;;;;;;;23.77;16.27;;;;;;;5.88;100.00;99575.38;5070626;28;20232;-59
2022/01/08 03:14:18;;;;;;;27.87;16.73;;;;;;;5.92;100.00;99574.53;5070407;28;20196;-62
2022/01/08 03:16:45;;;;;;;25.50;17.23;;;;;;;5.92;100.00;99572.81;5070302;28;20195;-61
2022/01/08 03:19:13;;;;;;;26.53;17.33;;;;;;;5.86;100.00;99577.13;5070626;28;20192;-62
2022/01/08 03:21:43;;;;;;;24.73;16.03;;;;;;;5.99;100.00;99577.03;5070419;28;20255;-62
2022/01/08 03:24:15;;;;;;;26.73;16.77;;;;;;;6.02;100.00;99576.16;5070453;28;20235;-61
2022/01/08 03:26:42;;;;;;;28.10;17.43;;;;;;;6.02;100.00;99576.16;5070370;28;20199;-61
2022/01/08 03:29:11;;;;;;;24.50;16.43;;;;;;;6.06;100.00;99573.53;5070206;28;20202;-62
2022/01/08 03:31:38;;;;;;;30.23;17.67;;;;;;;6.06;100.00;99570.09;5070465;28;20600;-62
2022/01/08 03:34:05;;;;;;;25.47;17.30;;;;;;;5.90;100.00;99571.97;5070316;28;20206;-58
2022/01/08 03:36:32;;;;;;;29.30;18.47;;;;;;;5.71;100.00;99560.94;5070182;28;20843;-58
2022/01/08 03:39:00;;;;;;;27.10;17.57;;;;;;;5.71;100.00;99575.53;5070473;28;20575;-59
2022/01/08 03:41:26;;;;;;;28.13;17.13;;;;;;;5.84;100.00;99572.00;5070194;28;20223;-61
2022/01/08 03:43:53;;;;;;;29.77;18.63;;;;;;;5.88;100.00;99567.66;5070000;28;20287;-62
2022/01/08 03:46:24;;;;;;;30.50;19.07;;;;;;;5.87;100.00;99571.13;5070042;28;20196;-60
2022/01/08 03:49:13;;;;;;;25.93;17.37;;;;;;;5.84;100.00;99567.69;5070045;28;20286;-59
2022/01/08 03:51:40;;;;;;;29.13;17.90;;;;;;;5.93;100.00;99568.50;5070125;28;20329;-59
2022/01/08 03:54:07;;;;;;;30.07;18.60;;;;;;;6.06;100.00;99555.50;5070034;28;20287;-59
2022/01/08 03:56:34;;;;;;;32.10;19.83;;;;;;;5.98;100.00;99546.16;5070101;28;20200;-59
2022/01/08 03:59:01;;;;;;;29.90;18.63;;;;;;;6.11;100.00;99552.88;5069987;28;20203;-59
2022/01/08 04:01:30;;;;;;;27.30;18.13;;;;;;;6.12;100.00;99550.28;5069931;28;20216;-59
2022/01/08 04:03:57;;;;;;;30.70;17.63;;;;;;;6.16;100.00;99556.25;5069748;28;20233;-58
2022/01/08 04:06:24;;;;;;;27.37;17.77;;;;;;;6.03;100.00;99557.25;5069842;28;20672;-59
2022/01/08 04:08:56;;;;;;;29.40;17.43;;;;;;;6.19;100.00;99554.50;5069777;28;20196;-59
2022/01/08 04:11:24;;;;;;;27.67;17.43;;;;;;;6.07;100.00;99549.47;5069807;28;20191;-59
2022/01/08 04:13:51;;;;;;;28.37;17.93;;;;;;;6.09;100.00;99550.31;5069587;28;20290;-59
2022/01/08 04:16:23;;;;;;;31.90;18.63;;;;;;;6.15;100.00;99547.69;5069670;28;20196;-58
2022/01/08 04:18:51;;;;;;;32.73;19.30;;;;;;;6.18;100.00;99557.09;5069745;28;20224;-59
2022/01/08 04:21:58;;;;;;;29.63;19.57;;;;;;;6.14;100.00;99552.84;5069402;28;20707;-58
2022/01/08 04:24:13;;;;;;;29.83;18.50;;;;;;;6.19;100.00;99553.66;5069521;28;20219;-60
2022/01/08 04:26:40;;;;;;;29.57;18.87;;;;;;;6.11;100.00;99539.97;5073983;28;20664;-58
2022/01/08 04:29:07;;;;;;;30.83;19.07;;;;;;;6.11;100.00;99550.28;5074005;28;20192;-60
2022/01/08 04:31:34;;;;;;;28.97;18.27;;;;;;;6.13;100.00;99553.72;5073622;28;20629;-58
2022/01/08 04:34:03;;;;;;;34.27;19.87;;;;;;;5.92;100.00;99535.88;5073613;28;20196;-59
2022/01/08 04:36:30;;;;;;;33.70;21.10;;;;;;;6.03;100.00;99554.66;5073317;28;20223;-59
2022/01/08 04:38:57;;;;;;;33.47;21.50;;;;;;;6.01;100.00;99558.97;5073723;28;20605;-59
2022/01/08 04:41:24;;;;;;;32.03;20.17;;;;;;;6.13;100.00;99553.72;5073380;28;20219;-58
2022/01/08 04:43:51;;;;;;;32.30;20.70;;;;;;;6.17;100.00;99550.25;5073294;28;20187;-58
2022/01/08 04:46:18;;;;;;;32.20;20.90;;;;;;;6.16;100.00;99556.25;5073225;28;20306;-58
2022/01/08 04:48:45;;;;;;;30.93;19.80;;;;;;;6.07;100.00;99553.78;5073289;28;20195;-57
2022/01/08 04:51:13;;;;;;;33.27;20.63;;;;;;;6.13;100.00;99548.56;5073631;28;20576;-59
2022/01/08 04:53:40;;;;;;;30.47;20.00;;;;;;;6.24;100.00;99557.03;5073457;28;20196;-62
2022/01/08 04:56:07;;;;;;;32.47;20.10;;;;;;;6.25;100.00;99551.00;5073250;28;20687;-61
2022/01/08 04:58:34;;;;;;;30.60;18.53;;;;;;;6.26;100.00;99552.72;5073181;28;20643;-61
2022/01/08 05:01:01;;;;;;;31.17;19.63;;;;;;;6.30;100.00;99551.81;5072887;28;20272;-62
2022/01/08 05:03:28;;;;;;;32.53;20.03;;;;;;;6.28;100.00;99547.53;5072982;28;20286;-58
2022/01/08 05:05:55;;;;;;;34.10;20.63;;;;;;;6.19;100.00;99543.34;5073091;28;20218;-59
2022/01/08 05:08:23;;;;;;;31.03;19.03;;;;;;;6.31;100.00;99548.38;5072871;28;20206;-58
2022/01/08 05:10:50;;;;;;;33.00;20.30;;;;;;;6.26;100.00;99531.25;5072892;28;20188;-58
2022/01/08 05:13:17;;;;;;;32.03;20.17;;;;;;;6.22;100.00;99532.97;5073260;28;20196;-59
2022/01/08 05:15:44;;;;;;;32.90;19.50;;;;;;;6.19;100.00;99536.47;5072870;28;20626;-58
2022/01/08 05:18:12;;;;;;;33.13;20.67;;;;;;;6.20;100.00;99532.19;5072984;28;20192;-59
2022/01/08 05:20:41;;;;;;;32.57;20.73;;;;;;;6.19;100.00;99522.72;5072758;28;20216;-57
2022/01/08 05:23:09;;;;;;;31.73;19.63;;;;;;;6.13;100.00;99509.91;5072679;28;20228;-59
2022/01/08 05:25:37;;;;;;;32.90;20.57;;;;;;;6.13;100.00;99533.94;5072533;28;20203;-58
2022/01/08 05:28:05;;;;;;;33.50;20.87;;;;;;;6.14;100.00;99534.81;5072509;28;20192;-58
2022/01/08 05:30:32;;;;;;;35.63;20.97;;;;;;;6.08;100.00;99538.31;5072613;28;20211;-60
2022/01/08 05:32:59;;;;;;;33.03;20.53;;;;;;;6.01;100.00;99510.88;5072668;28;20206;-59
2022/01/08 05:35:27;;;;;;;30.80;19.57;;;;;;;6.13;100.00;99528.78;5072157;28;20243;-57
2022/01/08 05:37:54;;;;;;;34.73;21.00;;;;;;;6.23;100.00;99524.38;5071297;28;20192;-59
2022/01/08 05:40:22;;;;;;;36.67;22.77;;;;;;;6.25;100.00;99522.66;5072511;28;20199;-59
2022/01/08 05:42:51;;;;;;;43.10;23.53;;;;;;;6.06;100.00;99521.16;5072303;28;20227;-62
2022/01/08 05:45:18;;;;;;;42.50;25.27;;;;;;;5.98;100.00;99528.13;5072487;28;20672;-58
2022/01/08 05:47:45;;;;;;;57.50;33.07;;;;;;;6.02;100.00;99532.34;5072343;28;20195;-58
2022/01/08 05:50:12;;;;;;;48.77;29.23;;;;;;;6.00;100.00;99526.34;5072239;28;20231;-59
2022/01/08 05:52:39;;;;;;;39.70;24.00;;;;;;;5.93;100.00;99515.28;5071971;28;20200;-59
2022/01/08 05:55:07;;;;;;;40.40;23.57;;;;;;;5.96;100.00;99535.00;5071493;28;20194;-59
2022/01/08 05:57:34;;;;;;;39.90;23.47;;;;;;;5.97;100.00;99516.09;5071910;28;20192;-59
2022/01/08 06:00:03;;;;;;;40.63;22.50;;;;;;;6.10;100.00;99522.81;5072017;28;20212;-58
2022/01/08 06:02:30;;;;;;;39.77;22.83;;;;;;;6.01;100.00;99544.38;5071789;28;20226;-59
2022/01/08 06:04:57;;;;;;;33.23;19.83;;;;;;;6.02;100.00;99540.09;5071910;28;20696;-59
2022/01/08 06:07:24;;;;;;;33.57;20.83;;;;;;;6.05;100.00;99545.22;5071901;28;20283;-59
2022/01/08 06:09:51;;;;;;;33.60;19.20;;;;;;;6.02;100.00;99525.47;5071171;28;20199;-59
2022/01/08 06:12:19;;;;;;;27.50;18.67;;;;;;;6.18;100.00;99545.06;5071892;28;20279;-59
2022/01/08 06:14:46;;;;;;;30.33;18.23;;;;;;;6.30;100.00;99551.81;5071956;28;20579;-59
2022/01/08 06:17:14;;;;;;;28.50;17.73;;;;;;;6.23;100.00;99537.28;5071779;28;20644;-60
2022/01/08 06:19:41;;;;;;;23.37;16.40;;;;;;;5.92;100.00;99512.72;5071051;28;20199;-58
2022/01/08 06:22:09;;;;;;;25.37;17.20;;;;;;;6.15;100.00;99546.81;5071020;28;20726;-60
2022/01/08 06:24:36;;;;;;;33.20;19.50;;;;;;;6.36;100.00;99548.31;5071823;28;20200;-61
2022/01/08 06:27:04;;;;;;;38.03;22.33;;;;;;;6.09;100.00;99521.13;5071593;28;20195;-59
2022/01/08 06:29:31;;;;;;;40.50;24.50;;;;;;;6.18;100.00;99544.22;5071438;28;20210;-60
2022/01/08 06:31:58;;;;;;;42.67;24.77;;;;;;;6.24;100.00;99543.28;5070382;28;20192;-60
2022/01/08 06:34:26;;;;;;;36.57;22.17;;;;;;;6.26;100.00;99541.53;5069126;28;20194;-60
2022/01/08 06:36:53;;;;;;;40.73;23.03;;;;;;;6.27;100.00;99545.84;5069494;28;20220;-60
2022/01/08 06:39:20;;;;;;;40.30;23.93;;;;;;;6.22;100.00;99547.59;5069602;28;20277;-60
2022/01/08 06:41:47;;;;;;;46.03;24.20;;;;;;;6.28;100.00;99547.53;5069710;28;20677;-60
2022/01/08 06:44:14;;;;;;;38.27;22.83;;;;;;;6.06;100.00;99523.72;5069713;28;20682;-60
2022/01/08 06:46:41;;;;;;;39.90;21.93;;;;;;;6.21;100.00;99545.91;5069612;28;20196;-59
2022/01/08 06:49:08;;;;;;;40.33;22.40;;;;;;;6.20;100.00;99542.47;5069230;28;20207;-59
2022/01/08 06:51:37;;;;;;;33.03;20.00;;;;;;;6.25;100.00;99542.41;5069516;28;20564;-58
2022/01/08 06:54:04;;;;;;;33.83;20.33;;;;;;;6.30;100.00;99541.50;5070597;28;20253;-59
2022/01/08 06:56:31;;;;;;;29.23;18.93;;;;;;;6.25;100.00;99547.56;5070971;28;20286;-60
2022/01/08 06:58:58;;;;;;;29.80;18.37;;;;;;;6.37;100.00;99537.13;5070803;28;20734;-60
2022/01/08 07:01:25;;;;;;;29.90;18.53;;;;;;;6.38;100.00;99529.38;5070733;28;20306;-61
2022/01/08 07:03:54;;;;;;;33.07;19.07;;;;;;;6.35;100.00;99528.56;5070630;28;20192;-61
2022/01/08 07:06:22;;;;;;;29.00;19.00;;;;;;;6.39;100.00;99540.53;5070883;28;20232;-60
2022/01/08 07:08:50;;;;;;;29.07;17.30;;;;;;;6.52;100.00;99537.81;5070232;28;20192;-63
2022/01/08 07:11:18;;;;;;;31.53;17.57;;;;;;;6.61;100.00;99541.13;5070093;28;20216;-61
2022/01/08 07:13:45;;;;;;;26.07;17.13;;;;;;;6.56;100.00;99536.88;5055216;28;20206;-65
2022/01/08 07:16:12;;;;;;;25.67;15.53;;;;;;;6.53;100.00;99539.53;5029535;22;20316;-81
2022/01/08 07:18:39;;;;;;;24.07;16.60;;;;;;;6.68;100.00;99540.19;5012046;28;20204;-81
2022/01/08 07:21:06;;;;;;;28.23;18.63;;;;;;;6.69;100.00;99523.84;5012345;28;20308;-79
2022/01/08 07:23:34;;;;;;;26.93;17.37;;;;;;;6.68;100.00;99522.13;5013303;28;20608;-73
2022/01/08 07:26:02;;;;;;;26.13;17.57;;;;;;;6.77;100.00;99535.75;5011534;28;20204;-74
2022/01/08 07:28:29;;;;;;;30.17;16.87;;;;;;;6.68;100.00;99543.63;5008166;28;20210;-76
2022/01/08 07:30:56;;;;;;;25.47;16.87;;;;;;;6.60;100.00;99537.72;5002707;28;20647;-74
2022/01/08 07:33:23;;;;;;;28.57;16.43;;;;;;;6.53;100.00;99539.53;5008905;28;20225;-74
2022/01/08 07:38:19;;;;;;;25.03;15.57;;;;;;;6.38;100.00;99472.66;5030554;28;20212;-73
2022/01/08 07:40:51;;;;;;;24.37;15.67;;;;;;;6.78;100.00;99534.88;5031740;28;20193;-75
2022/01/08 07:43:19;;;;;;;36.33;16.43;;;;;;;6.83;100.00;99530.53;5032701;28;20220;-79
2022/01/08 07:45:46;;;;;;;36.53;18.63;;;;;;;6.78;100.00;99534.03;5032548;28;20529;-75
2022/01/08 07:48:13;;;;;;;28.53;17.77;;;;;;;6.50;100.00;99500.88;5032679;28;20194;-75
2022/01/08 07:50:40;;;;;;;29.17;17.93;;;;;;;6.40;100.00;99485.53;4994780;22;20225;-76
2022/01/08 07:53:07;;;;;;;30.50;19.77;;;;;;;6.78;100.00;99534.03;5022645;28;20669;-75
2022/01/08 07:55:34;;;;;;;32.57;20.00;;;;;;;6.77;100.00;99532.34;5032364;28;20193;-76
2022/01/08 07:58:01;;;;;;;33.30;19.00;;;;;;;6.68;100.00;99535.03;5024110;28;20284;-78
2022/01/08 08:00:29;;;;;;;28.70;18.50;;;;;;;6.72;100.00;99536.69;5031755;28;20223;-78
2022/01/08 08:02:56;;;;;;;33.00;19.90;;;;;;;6.55;100.00;99503.38;5032670;28;20248;-77
2022/01/08 08:05:23;;;;;;;35.85;22.58;;;;;;;6.65;100.00;99517.88;5032867;28;20448;-77
2022/01/08 08:07:50;;;;;;;29.63;19.20;;;;;;;6.65;100.00;99489.50;5032006;28;20197;-80
2022/01/08 08:10:18;;;;;;;28.87;18.57;;;;;;;6.28;100.00;99423.81;5031081;28;20201;-75
2022/01/08 08:12:45;;;;;;;29.63;19.13;;;;;;;6.86;100.00;99514.16;5031827;28;20719;-77
2022/01/08 08:15:15;;;;;;;32.87;19.60;;;;;;;6.64;100.00;99486.94;5021656;28;20198;-76
2022/01/08 08:17:44;;;;;;;33.50;20.53;;;;;;;6.87;100.00;99521.88;5019710;28;20213;-74
2022/01/08 08:20:12;;;;;;;30.17;20.37;;;;;;;6.86;100.00;99527.91;5030829;28;20197;-78
2022/01/08 08:22:39;;;;;;;36.13;21.07;;;;;;;6.79;100.00;99520.25;5031403;28;20236;-76
2022/01/08 08:25:07;;;;;;;37.87;23.43;;;;;;;6.76;100.00;99518.59;5030342;28;20207;-75
2022/01/08 08:27:34;;;;;;;41.97;25.23;;;;;;;6.62;100.00;99483.53;5017340;28;20281;-76
2022/01/08 08:30:01;;;;;;;41.33;25.50;;;;;;;6.86;100.00;99512.44;5031504;28;20189;-74
2022/01/08 08:32:28;;;;;;;33.47;20.53;;;;;;;6.89;100.00;99509.78;5027352;28;20202;-75
2022/01/08 08:34:57;;;;;;;36.60;20.70;;;;;;;6.90;100.00;99515.81;5021627;28;20198;-74
2022/01/08 08:37:24;;;;;;;38.83;22.07;;;;;;;6.69;100.00;99509.22;5022087;23;20226;-62
2022/01/08 08:39:53;;;;;;;45.70;21.87;;;;;;;6.66;100.00;99500.69;5008056;28;20205;-60
2022/01/08 08:42:20;;;;;;;37.80;22.87;;;;;;;6.73;100.00;99507.47;5006675;28;20218;-60
2022/01/08 08:44:47;;;;;;;43.67;22.57;;;;;;;6.74;100.00;99497.13;4992285;28;20203;-61
2022/01/08 08:47:14;;;;;;;37.23;22.60;;;;;;;6.77;100.00;99503.97;4989834;28;20195;-62
2022/01/08 08:49:41;;;;;;;46.63;27.30;;;;;;;6.86;100.00;99491.78;4990310;28;20197;-61
2022/01/08 08:52:09;;;;;;;47.87;27.63;;;;;;;6.78;100.00;99498.75;4995193;28;20192;-59
2022/01/08 08:54:39;;;;;;;51.50;27.43;;;;;;;6.74;100.00;99491.97;5000010;28;20198;-60
2022/01/08 08:57:06;;;;;;;39.50;25.20;;;;;;;6.66;100.00;99478.28;5000544;28;20209;-59
2022/01/08 08:59:33;;;;;;;39.97;25.80;;;;;;;6.86;100.00;99490.94;4990184;28;20207;-61
2022/01/08 09:02:00;;;;;;;41.57;24.13;;;;;;;6.88;100.00;99486.63;4990203;28;20222;-61
2022/01/08 09:04:27;;;;;;;45.40;26.07;;;;;;;6.73;100.00;99482.53;4990393;28;20277;-62
2022/01/08 09:06:57;;;;;;;45.13;26.13;;;;;;;6.76;100.00;99482.47;4990181;28;20285;-59
2022/01/08 09:09:25;;;;;;;46.90;26.43;;;;;;;6.85;100.00;99476.34;5000719;28;20195;-59
2022/01/08 09:11:52;;;;;;;41.60;23.67;;;;;;;6.76;100.00;99471.31;4992636;28;20674;-59
2022/01/08 09:14:19;;;;;;;43.13;25.37;;;;;;;6.66;100.00;99457.66;4993685;28;20199;-60
2022/01/08 09:16:49;;;;;;;37.23;23.30;;;;;;;6.75;100.00;99457.56;4993572;28;20216;-62
2022/01/08 09:19:16;;;;;;;41.77;23.93;;;;;;;6.82;100.00;99448.84;4993668;28;20199;-61
2022/01/08 09:21:44;;;;;;;41.80;24.23;;;;;;;7.00;100.00;99457.19;4993779;28;20203;-62
2022/01/08 09:24:12;;;;;;;42.57;24.20;;;;;;;7.12;100.00;99450.09;5003343;28;20217;-62
2022/01/08 09:26:41;;;;;;;41.97;22.93;;;;;;;7.07;100.00;99453.63;5007086;28;20205;-62
2022/01/08 09:29:07;;;;;;;40.23;24.00;;;;;;;7.04;100.00;99423.56;5011731;28;20205;-60
2022/01/08 09:31:35;;;;;;;44.13;24.67;;;;;;;7.22;100.00;99438.75;5011539;28;20190;-61
2022/01/08 09:34:02;;;;;;;43.50;24.20;;;;;;;7.27;100.00;99429.19;5011461;28;20198;-62
2022/01/08 09:36:29;;;;;;;37.67;24.30;;;;;;;7.38;100.00;99434.19;5012315;28;20221;-62
2022/01/08 09:38:56;;;;;;;42.37;25.27;;;;;;;7.48;100.00;99422.81;5011756;28;20209;-62
2022/01/08 09:41:23;;;;;;;34.37;21.13;;;;;;;7.56;100.00;99412.38;5011557;28;20659;-61
2022/01/08 09:43:51;;;;;;;31.97;20.87;;;;;;;7.50;100.00;99421.06;5011373;28;20225;-64
2022/01/08 09:46:21;;;;;;;33.93;20.50;;;;;;;7.42;100.00;99404.84;5008927;28;20218;-61
2022/01/08 09:48:48;;;;;;;33.27;20.87;;;;;;;7.48;100.00;99409.91;5011259;28;20230;-62
2022/01/08 09:51:16;;;;;;;32.73;21.70;;;;;;;7.50;100.00;99404.72;5010671;28;20198;-61
2022/01/08 09:53:44;;;;;;;41.40;23.13;;;;;;;7.50;100.00;99400.41;5010850;28;20194;-63
2022/01/08 09:56:11;;;;;;;33.60;20.93;;;;;;;7.49;100.00;99392.69;5011846;28;20256;-60
2022/01/08 09:58:38;;;;;;;32.37;18.70;;;;;;;7.49;100.00;99379.75;5008577;28;20316;-59
2022/01/08 10:01:23;;;;;;;26.03;17.43;;;;;;;7.49;100.00;99374.59;5011592;28;20199;-61
2022/01/08 10:03:51;;;;;;;26.70;17.20;;;;;;;7.59;100.00;99383.88;5010984;28;20225;-61
2022/01/08 10:06:23;;;;;;;25.73;16.53;;;;;;;7.69;100.00;99366.47;5011027;28;20224;-62
2022/01/08 10:08:51;;;;;;;26.90;17.27;;;;;;;7.79;100.00;99366.25;5010974;28;20961;-62
2022/01/08 10:11:18;;;;;;;21.13;14.50;;;;;;;7.75;100.00;99362.03;5008377;28;20202;-62
2022/01/08 10:13:47;;;;;;;21.07;14.10;;;;;;;7.85;100.00;99363.56;5010489;28;20579;-60
2022/01/08 10:19:02;;;;;;;17.70;13.33;;;;;;;7.97;100.00;99355.56;5008730;28;20198;-59
2022/01/08 10:21:32;;;;;;;15.87;12.20;;;;;;;7.93;100.00;99356.50;5010539;28;20193;-59
2022/01/08 10:24:03;;;;;;;14.30;10.90;;;;;;;7.99;100.00;99360.69;5007247;28;20225;-61
2022/01/08 10:26:32;;;;;;;15.03;11.30;;;;;;;8.14;100.00;99354.34;5011174;28;20598;-61
2022/01/08 10:29:00;;;;;;;13.10;10.97;;;;;;;8.16;100.00;99352.56;5011828;28;20257;-63
2022/01/08 10:31:30;;;;;;;15.47;11.03;;;;;;;8.09;100.00;99341.53;5011944;28;20201;-62
2022/01/08 10:34:07;;;;;;;14.90;11.97;;;;;;;7.81;100.00;99325.75;5011757;28;20204;-63
2022/01/08 10:36:36;;;;;;;16.13;11.43;;;;;;;7.99;100.00;99347.78;5011457;28;20233;-63
2022/01/08 10:39:06;;;;;;;12.77;9.77;;;;;;;8.03;100.00;99344.22;5011533;28;20231;-62
2022/01/08 10:41:33;;;;;;;12.00;10.13;;;;;;;8.11;100.00;99347.53;5010277;28;20202;-63
2022/01/08 10:44:13;;;;;;;11.97;10.20;;;;;;;7.99;100.00;99340.03;5011519;28;20656;-63
2022/01/08 10:46:45;;;;;;;11.33;9.37;;;;;;;7.94;100.00;99323.75;5011388;28;20202;-63
2022/01/08 10:49:16;;;;;;;10.73;9.40;;;;;;;7.98;100.00;99331.41;5011383;28;20284;-64
2022/01/08 10:51:43;;;;;;;17.67;13.23;;;;;;;7.94;100.00;99322.03;5011389;28;20708;-63
2022/01/08 10:54:12;;;;;;;12.60;10.20;;;;;;;7.80;100.00;99316.28;5007442;28;20697;-63
2022/01/08 10:56:42;;;;;;;13.13;9.93;;;;;;;7.77;100.00;99313.78;5010680;28;20232;-64
2022/01/08 10:59:12;;;;;;;11.20;8.13;;;;;;;7.76;100.00;99312.09;5011185;28;20313;-62
2022/01/08 11:01:50;;;;;;;16.13;11.43;;;;;;;7.79;100.00;99306.81;5010088;28;20204;-62
2022/01/08 11:04:19;;;;;;;23.83;14.63;;;;;;;7.78;100.00;99299.13;5006138;28;20225;-58
2022/01/08 11:06:57;;;;;;;14.50;11.27;;;;;;;7.89;100.00;99294.59;5006059;28;20228;-56
2022/01/08 11:09:26;;;;;;;16.10;10.60;;;;;;;7.90;100.00;99289.38;5010545;28;20225;-57
2022/01/08 11:11:55;;;;;;;12.77;10.67;;;;;;;7.88;100.00;99291.16;5009638;28;20232;-61
2022/01/08 11:17:13;;;;;;;8.63;7.73;;;;;;;7.89;100.00;99292.00;5010782;28;20610;-60
2022/01/08 11:19:44;;;;;;;15.23;10.70;;;;;;;7.86;100.00;99287.75;5010668;28;20226;-59
2022/01/08 11:22:13;;;;;;;17.33;11.43;;;;;;;7.88;100.00;99286.00;5010581;28;20228;-60
2022/01/08 11:24:45;;;;;;;19.07;12.37;;;;;;;7.74;100.00;99288.00;5010635;28;20229;-57
2022/01/08 11:27:14;;;;;;;16.40;11.37;;;;;;;7.73;100.00;99283.72;5010619;28;20253;-58
2022/01/08 11:29:45;;;;;;;22.40;12.47;;;;;;;7.78;100.00;99283.63;5010237;28;20226;-60
2022/01/08 11:32:15;;;;;;;10.67;8.50;;;;;;;7.74;100.00;99282.84;5008872;28;20224;-59
2022/01/08 11:34:45;;;;;;;11.77;9.10;;;;;;;7.65;100.00;99283.88;5009044;28;20237;-59
2022/01/08 11:37:13;;;;;;;10.57;8.47;;;;;;;7.46;100.00;99251.56;5010509;28;20225;-60
2022/01/08 11:39:44;;;;;;;13.43;8.80;;;;;;;7.53;100.00;99271.22;5009652;28;20656;-61
2022/01/08 11:42:13;;;;;;;15.10;10.03;;;;;;;7.59;100.00;99263.34;5006724;28;20268;-61